createdAt,value
2019-03-29T00:01:08.016Z,4.20
2019-03-29T00:04:13.568Z,4.10
2019-03-29T00:07:20.208Z,4.60
2019-03-29T00:10:25.608Z,4.87
2019-03-29T00:13:38.306Z,4.30
2019-03-29T00:16:43.680Z,4.10
2019-03-29T00:20:07.939Z,3.17
2019-03-29T00:23:13.574Z,3.47
2019-03-29T00:26:19.032Z,3.33
2019-03-29T00:29:25.861Z,4.47
2019-03-29T00:32:31.922Z,4.30
2019-03-29T00:35:40.014Z,3.83
2019-03-29T00:38:46.641Z,3.80
2019-03-29T00:41:52.328Z,4.17
2019-03-29T00:44:58.068Z,3.57
2019-03-29T00:48:03.910Z,2.87
2019-03-29T00:51:09.375Z,4.13
2019-03-29T00:54:14.893Z,3.43
2019-03-29T00:57:20.480Z,4.30
2019-03-29T01:00:36.231Z,3.47
2019-03-29T01:03:43.502Z,3.27
2019-03-29T01:06:48.790Z,3.37
2019-03-29T01:09:56.254Z,3.10
2019-03-29T01:13:02.130Z,3.53
2019-03-29T01:16:08.016Z,3.87
2019-03-29T01:19:13.276Z,3.80
2019-03-29T01:22:19.129Z,3.83
2019-03-29T01:25:24.809Z,3.87
2019-03-29T01:28:30.538Z,3.20
2019-03-29T01:31:36.079Z,4.10
2019-03-29T01:34:43.038Z,4.47
2019-03-29T01:37:48.487Z,4.10
2019-03-29T01:40:53.733Z,3.80
2019-03-29T01:44:00.006Z,5.77
2019-03-29T01:47:05.665Z,5.60
2019-03-29T01:50:11.448Z,5.80
2019-03-29T01:53:16.967Z,5.90
2019-03-29T01:56:22.731Z,6.83
2019-03-29T01:59:29.543Z,7.90
2019-03-29T02:02:38.016Z,6.43
2019-03-29T02:05:43.689Z,4.83
2019-03-29T02:08:49.248Z,3.70
2019-03-29T02:11:54.846Z,4.73
2019-03-29T02:15:00.546Z,4.53
2019-03-29T02:18:06.403Z,4.67
2019-03-29T02:21:12.191Z,4.00
2019-03-29T02:24:17.593Z,4.30
2019-03-29T02:27:23.201Z,3.43
2019-03-29T02:30:29.016Z,4.00
2019-03-29T02:33:34.514Z,3.30
2019-03-29T02:36:40.081Z,3.87
2019-03-29T02:39:45.599Z,3.10
2019-03-29T02:42:51.112Z,3.53
2019-03-29T02:45:57.588Z,3.67
2019-03-29T02:49:03.239Z,3.37
2019-03-29T02:52:08.810Z,3.50
2019-03-29T02:55:14.974Z,3.73
2019-03-29T02:58:20.738Z,3.20
2019-03-29T03:01:26.462Z,3.33
2019-03-29T03:04:32.246Z,3.47
2019-03-29T03:07:38.076Z,3.37
2019-03-29T03:10:43.933Z,3.43
2019-03-29T03:13:49.467Z,3.83
2019-03-29T03:16:54.916Z,3.70
2019-03-29T03:20:00.712Z,3.10
2019-03-29T03:23:06.773Z,3.63
2019-03-29T03:26:12.495Z,3.83
2019-03-29T03:29:17.862Z,4.00
2019-03-29T03:32:23.385Z,4.37
2019-03-29T03:35:29.009Z,3.60
2019-03-29T03:38:34.493Z,3.90
2019-03-29T03:41:39.981Z,3.63
2019-03-29T03:44:45.412Z,4.70
2019-03-29T03:47:51.189Z,4.33
2019-03-29T03:50:56.798Z,4.10
2019-03-29T03:54:02.617Z,3.80
2019-03-29T03:57:08.716Z,4.77
2019-03-29T04:00:24.889Z,4.93
2019-03-29T04:03:31.206Z,4.33
2019-03-29T04:06:36.555Z,3.77
2019-03-29T04:09:50.058Z,4.70
2019-03-29T04:12:49.097Z,3.77
2019-03-29T04:15:54.955Z,3.80
2019-03-29T04:19:00.441Z,4.87
2019-03-29T04:22:05.925Z,4.80
2019-03-29T04:25:11.414Z,4.50
2019-03-29T04:28:17.065Z,4.70
2019-03-29T04:31:22.801Z,4.90
2019-03-29T04:34:28.363Z,5.03
2019-03-29T04:37:34.239Z,4.67
2019-03-29T04:40:39.858Z,4.57
2019-03-29T04:43:45.246Z,4.17
2019-03-29T04:46:52.200Z,5.27
2019-03-29T04:49:59.096Z,4.97
2019-03-29T04:53:04.624Z,3.60
2019-03-29T04:56:10.110Z,4.83
2019-03-29T04:59:15.818Z,5.03
2019-03-29T05:02:21.953Z,5.30
2019-03-29T05:05:27.559Z,4.50
2019-03-29T05:08:33.089Z,4.93
2019-03-29T05:11:38.718Z,6.20
2019-03-29T05:14:44.202Z,5.57
2019-03-29T05:17:49.533Z,6.00
2019-03-29T05:20:55.089Z,5.03
2019-03-29T05:24:00.680Z,5.93
2019-03-29T05:27:06.398Z,4.53
2019-03-29T05:30:12.153Z,5.40
2019-03-29T05:33:17.725Z,5.17
2019-03-29T05:36:23.301Z,4.80
2019-03-29T05:39:28.846Z,5.87
2019-03-29T05:42:39.087Z,4.90
2019-03-29T05:45:44.819Z,5.07
2019-03-29T05:48:50.611Z,5.80
2019-03-29T05:51:56.957Z,5.60
2019-03-29T05:55:02.340Z,6.20
2019-03-29T05:58:07.901Z,5.67
2019-03-29T06:01:13.640Z,6.17
2019-03-29T06:04:19.154Z,5.57
2019-03-29T06:07:24.748Z,6.30
2019-03-29T06:10:30.303Z,5.23
2019-03-29T06:13:36.058Z,6.07
2019-03-29T06:16:41.904Z,5.33
2019-03-29T06:19:47.527Z,4.73
2019-03-29T06:22:53.127Z,5.27
2019-03-29T06:25:58.754Z,6.60
2019-03-29T06:29:04.294Z,5.30
2019-03-29T06:32:10.292Z,5.13
2019-03-29T06:35:16.248Z,5.53
2019-03-29T06:38:24.519Z,5.03
2019-03-29T06:41:30.101Z,6.20
2019-03-29T06:44:35.773Z,6.27
2019-03-29T06:47:49.734Z,6.00
2019-03-29T06:50:55.535Z,5.23
2019-03-29T06:54:01.080Z,5.33
2019-03-29T06:57:06.746Z,5.93
2019-03-29T07:00:12.396Z,5.60
2019-03-29T07:03:18.172Z,6.60
2019-03-29T07:06:23.802Z,5.47
2019-03-29T07:09:29.258Z,6.53
2019-03-29T07:12:34.993Z,6.30
2019-03-29T07:15:40.567Z,6.20
2019-03-29T07:18:45.935Z,6.03
2019-03-29T07:21:53.522Z,6.07
2019-03-29T07:24:59.291Z,5.93
2019-03-29T07:28:04.830Z,6.50
2019-03-29T07:31:10.627Z,5.83
2019-03-29T07:34:17.095Z,6.70
2019-03-29T07:37:22.708Z,6.37
2019-03-29T07:40:28.279Z,6.30
2019-03-29T07:43:33.845Z,6.83
2019-03-29T07:46:39.592Z,5.70
2019-03-29T07:49:45.345Z,6.00
2019-03-29T07:52:50.898Z,6.00
2019-03-29T07:55:57.049Z,6.30
2019-03-29T07:59:02.799Z,6.47
2019-03-29T08:02:08.545Z,6.67
2019-03-29T08:05:14.141Z,6.27
2019-03-29T08:08:24.254Z,5.87
2019-03-29T08:11:28.393Z,6.77
2019-03-29T08:14:34.483Z,5.73
2019-03-29T08:17:39.987Z,5.70
2019-03-29T08:20:46.151Z,6.10
2019-03-29T08:23:52.312Z,6.10
2019-03-29T08:26:58.313Z,7.10
2019-03-29T08:30:04.368Z,6.10
2019-03-29T08:33:09.861Z,6.10
2019-03-29T08:36:15.530Z,6.07
2019-03-29T08:39:27.761Z,5.47
2019-03-29T08:42:29.768Z,5.97
2019-03-29T08:45:35.604Z,5.73
2019-03-29T08:48:44.148Z,5.87
2019-03-29T08:51:48.272Z,6.07
2019-03-29T08:54:54.385Z,6.60
2019-03-29T08:58:00.172Z,6.13
2019-03-29T09:01:06.033Z,5.73
2019-03-29T09:04:11.945Z,5.80
2019-03-29T09:07:17.970Z,5.70
2019-03-29T09:10:28.208Z,5.60
2019-03-29T09:13:33.665Z,6.57
2019-03-29T09:16:41.277Z,6.33
2019-03-29T09:19:47.138Z,6.63
2019-03-29T09:22:52.797Z,5.90
2019-03-29T09:25:59.447Z,7.27
2019-03-29T09:29:05.425Z,6.87
2019-03-29T09:32:11.240Z,7.00
2019-03-29T09:35:16.883Z,8.03
2019-03-29T09:38:23.929Z,6.73
2019-03-29T09:41:30.569Z,7.23
2019-03-29T09:44:36.523Z,7.40
2019-03-29T09:47:42.169Z,7.10
2019-03-29T09:50:50.576Z,7.30
2019-03-29T09:53:57.763Z,8.30
2019-03-29T09:57:01.994Z,7.20
2019-03-29T10:00:19.182Z,6.73
2019-03-29T10:03:16.587Z,6.93
2019-03-29T10:06:22.436Z,7.27
2019-03-29T10:09:28.104Z,7.50
2019-03-29T10:12:43.242Z,7.80
2019-03-29T10:15:41.974Z,7.63
2019-03-29T10:18:47.836Z,8.13
2019-03-29T10:21:53.446Z,8.10
2019-03-29T10:25:01.822Z,9.50
2019-03-29T10:28:06.535Z,8.77
2019-03-29T10:31:12.549Z,8.57
2019-03-29T10:34:18.149Z,6.97
2019-03-29T10:37:24.040Z,7.60
2019-03-29T10:40:29.862Z,8.10
2019-03-29T10:43:35.231Z,7.40
2019-03-29T10:46:44.275Z,6.93
2019-03-29T10:49:49.767Z,8.40
2019-03-29T10:52:55.485Z,8.30
2019-03-29T10:56:01.437Z,7.77
2019-03-29T10:59:07.572Z,6.60
2019-03-29T11:02:13.161Z,8.23
2019-03-29T11:05:20.955Z,7.73
2019-03-29T11:08:26.900Z,8.57
2019-03-29T11:11:32.779Z,7.90
2019-03-29T11:14:39.454Z,8.03
2019-03-29T11:17:45.973Z,7.60
2019-03-29T11:20:51.898Z,7.40
2019-03-29T11:23:57.452Z,8.73
2019-03-29T11:27:04.039Z,8.80
2019-03-29T11:30:09.683Z,7.97
2019-03-29T11:33:15.697Z,9.23
2019-03-29T11:36:21.399Z,8.03
2019-03-29T11:39:27.585Z,8.47
2019-03-29T11:42:33.227Z,7.40
2019-03-29T11:45:38.864Z,8.53
2019-03-29T11:48:44.484Z,8.07
2019-03-29T11:51:50.067Z,8.97
2019-03-29T11:54:56.728Z,9.20
2019-03-29T11:58:03.077Z,8.63
2019-03-29T12:01:08.947Z,8.40
2019-03-29T12:04:14.565Z,7.80
2019-03-29T12:07:20.390Z,7.57
2019-03-29T12:10:26.199Z,9.10
2019-03-29T12:13:40.848Z,9.33
2019-03-29T12:16:39.359Z,8.93
2019-03-29T12:19:44.981Z,8.97
2019-03-29T12:22:50.457Z,9.03
2019-03-29T12:25:56.058Z,7.80
2019-03-29T12:29:01.576Z,7.80
2019-03-29T12:32:07.169Z,7.57
2019-03-29T12:35:12.504Z,8.40
2019-03-29T12:38:18.460Z,7.90
2019-03-29T12:41:23.659Z,8.40
2019-03-29T12:44:29.394Z,8.40
2019-03-29T12:47:34.640Z,8.53
2019-03-29T12:50:40.448Z,8.30
2019-03-29T12:53:46.011Z,8.47
2019-03-29T12:56:51.793Z,7.27
2019-03-29T13:00:16.267Z,8.00
2019-03-29T13:03:21.797Z,8.90
2019-03-29T13:06:27.359Z,9.10
2019-03-29T13:09:32.864Z,7.70
2019-03-29T13:12:38.410Z,8.90
2019-03-29T13:15:45.209Z,8.47
2019-03-29T13:18:53.546Z,7.83
2019-03-29T13:21:58.003Z,8.13
2019-03-29T13:25:07.186Z,8.97
2019-03-29T13:28:11.265Z,8.00
2019-03-29T13:31:16.971Z,7.30
2019-03-29T13:34:25.653Z,8.23
2019-03-29T13:37:33.185Z,8.10
2019-03-29T13:40:38.751Z,7.60
2019-03-29T13:43:44.293Z,7.00
2019-03-29T13:46:52.878Z,7.90
2019-03-29T13:49:58.309Z,8.20
2019-03-29T13:53:04.109Z,8.03
2019-03-29T13:56:10.895Z,8.83
2019-03-29T13:59:16.832Z,7.87
2019-03-29T14:02:22.930Z,8.97
2019-03-29T14:05:28.799Z,8.40
2019-03-29T14:08:34.951Z,7.30
2019-03-29T14:11:40.841Z,8.03
2019-03-29T14:14:46.828Z,8.20
2019-03-29T14:17:53.546Z,7.70
2019-03-29T14:21:06.078Z,8.50
2019-03-29T14:24:11.824Z,8.23
2019-03-29T14:27:17.723Z,6.90
2019-03-29T14:30:23.535Z,8.50
2019-03-29T14:33:30.108Z,7.50
2019-03-29T14:36:35.731Z,7.43
2019-03-29T14:39:41.738Z,8.50
2019-03-29T14:42:47.495Z,8.93
2019-03-29T14:45:53.332Z,8.10
2019-03-29T14:48:58.978Z,7.80
2019-03-29T14:52:04.612Z,8.50
2019-03-29T14:55:11.811Z,8.17
2019-03-29T14:58:17.825Z,7.90
2019-03-29T15:01:23.779Z,8.90
2019-03-29T15:04:29.368Z,7.23
2019-03-29T15:07:35.270Z,6.73
2019-03-29T15:10:40.900Z,7.03
2019-03-29T15:13:46.653Z,8.17
2019-03-29T15:16:52.256Z,7.90
2019-03-29T15:19:57.857Z,7.17
2019-03-29T15:23:03.333Z,7.77
2019-03-29T15:26:08.834Z,6.90
2019-03-29T15:29:14.585Z,7.40
2019-03-29T15:32:20.662Z,7.80
2019-03-29T15:35:26.070Z,6.80
2019-03-29T15:38:31.848Z,7.80
2019-03-29T15:41:37.425Z,8.40
2019-03-29T15:44:45.126Z,6.70
2019-03-29T15:47:51.208Z,7.30
2019-03-29T15:50:57.076Z,6.50
2019-03-29T15:54:02.680Z,6.03
2019-03-29T15:57:08.590Z,7.37
2019-03-29T16:00:15.663Z,7.77
2019-03-29T16:03:21.446Z,7.23
2019-03-29T16:06:27.197Z,6.90
2019-03-29T16:09:32.662Z,7.47
2019-03-29T16:12:38.735Z,7.00
2019-03-29T16:15:44.232Z,9.43
2019-03-29T16:18:50.769Z,10.00
2019-03-29T16:21:56.495Z,8.07
2019-03-29T16:25:01.995Z,7.53
2019-03-29T16:28:07.407Z,8.50
2019-03-29T16:31:13.064Z,6.80
2019-03-29T16:34:18.845Z,8.03
2019-03-29T16:37:24.281Z,7.57
2019-03-29T16:40:31.225Z,7.87
2019-03-29T16:43:37.597Z,8.00
2019-03-29T16:46:43.362Z,8.50
2019-03-29T16:49:49.127Z,7.43
2019-03-29T16:52:54.664Z,7.40
2019-03-29T16:56:00.346Z,7.17
2019-03-29T16:59:06.073Z,7.20
2019-03-29T17:02:11.717Z,7.10
2019-03-29T17:05:17.685Z,7.53
2019-03-29T17:08:23.516Z,6.57
2019-03-29T17:11:29.128Z,7.30
2019-03-29T17:14:34.587Z,7.40
2019-03-29T17:17:40.094Z,6.97
2019-03-29T17:20:45.875Z,6.60
2019-03-29T17:23:52.860Z,5.87
2019-03-29T17:26:58.632Z,6.77
2019-03-29T17:30:04.731Z,7.07
2019-03-29T17:33:10.181Z,6.90
2019-03-29T17:36:15.854Z,6.60
2019-03-29T17:39:22.668Z,6.80
2019-03-29T17:42:28.384Z,6.90
2019-03-29T17:45:37.270Z,7.70
2019-03-29T17:48:42.879Z,8.13
2019-03-29T17:51:48.649Z,7.00
2019-03-29T17:54:56.015Z,7.10
2019-03-29T17:58:01.530Z,7.30
2019-03-29T18:01:07.146Z,6.97
2019-03-29T18:04:13.034Z,7.50
2019-03-29T18:07:18.961Z,7.30
2019-03-29T18:10:25.772Z,8.00
2019-03-29T18:13:31.733Z,7.00
2019-03-29T18:16:37.285Z,7.00
2019-03-29T18:19:43.834Z,8.27
2019-03-29T18:22:49.710Z,8.63
2019-03-29T18:25:55.322Z,7.60
2019-03-29T18:29:01.332Z,8.00
2019-03-29T18:32:07.127Z,7.87
2019-03-29T18:35:13.099Z,9.60
2019-03-29T18:38:18.811Z,9.57
2019-03-29T18:41:24.745Z,9.03
2019-03-29T18:44:30.778Z,8.90
2019-03-29T18:47:36.290Z,7.97
2019-03-29T18:50:41.895Z,8.93
2019-03-29T18:53:47.874Z,10.00
2019-03-29T18:56:54.801Z,10.87
2019-03-29T19:00:00.895Z,11.90
2019-03-29T19:03:06.842Z,10.60
2019-03-29T19:06:12.869Z,10.80
2019-03-29T19:09:18.498Z,12.63
2019-03-29T19:12:25.550Z,12.40
2019-03-29T19:15:31.437Z,11.80
2019-03-29T19:18:38.786Z,12.37
2019-03-29T19:21:45.718Z,15.03
2019-03-29T19:24:51.343Z,14.53
2019-03-29T19:27:57.047Z,11.83
2019-03-29T19:31:03.513Z,12.23
2019-03-29T19:34:09.904Z,11.80
2019-03-29T19:37:15.722Z,13.90
2019-03-29T19:40:21.748Z,15.30
2019-03-29T19:43:32.684Z,13.90
2019-03-29T19:46:40.248Z,14.13
2019-03-29T19:49:45.877Z,12.37
2019-03-29T19:52:51.718Z,10.93
2019-03-29T19:55:58.679Z,13.67
2019-03-29T19:59:05.248Z,13.70
2019-03-29T20:02:12.540Z,11.23
2019-03-29T20:05:28.891Z,11.57
2019-03-29T20:08:34.600Z,10.70
2019-03-29T20:11:41.230Z,10.20
2019-03-29T20:14:47.834Z,9.60
2019-03-29T20:17:53.538Z,11.60
2019-03-29T20:20:58.918Z,10.70
2019-03-29T20:24:05.145Z,10.43
2019-03-29T20:27:10.907Z,11.13
2019-03-29T20:30:16.723Z,11.03
2019-03-29T20:33:22.645Z,10.40
2019-03-29T20:36:28.442Z,10.77
2019-03-29T20:39:34.025Z,10.60
2019-03-29T20:42:39.737Z,9.70
2019-03-29T20:45:45.533Z,10.70
2019-03-29T20:49:00.534Z,11.53
2019-03-29T20:52:06.979Z,9.80
2019-03-29T20:55:12.738Z,10.60
2019-03-29T20:58:19.993Z,11.50
2019-03-29T21:01:26.030Z,10.90
2019-03-29T21:04:31.967Z,10.60
2019-03-29T21:07:38.397Z,11.67
2019-03-29T21:10:55.650Z,10.67
2019-03-29T21:13:52.187Z,10.60
2019-03-29T21:17:00.797Z,11.10
2019-03-29T21:20:07.691Z,10.50
2019-03-29T21:23:14.044Z,10.80
2019-03-29T21:26:21.468Z,11.50
2019-03-29T21:29:30.938Z,10.70
2019-03-29T21:32:38.484Z,12.90
2019-03-29T21:35:44.212Z,11.43
2019-03-29T21:38:50.975Z,11.80
2019-03-29T21:41:56.986Z,10.40
2019-03-29T21:45:02.634Z,11.50
2019-03-29T21:48:27.419Z,12.97
2019-03-29T21:51:15.823Z,12.90
2019-03-29T21:54:21.611Z,12.30
2019-03-29T21:57:27.425Z,12.40
2019-03-29T22:00:32.962Z,13.13
2019-03-29T22:03:42.795Z,12.20
2019-03-29T22:06:48.570Z,12.23
2019-03-29T22:09:54.484Z,11.80
2019-03-29T22:13:00.081Z,13.53
2019-03-29T22:16:05.655Z,14.80
2019-03-29T22:19:11.343Z,13.73
2019-03-29T22:22:17.118Z,13.43
2019-03-29T22:25:23.971Z,13.20
2019-03-29T22:28:30.314Z,13.73
2019-03-29T22:31:35.785Z,12.87
2019-03-29T22:34:41.998Z,11.80
2019-03-29T22:37:47.749Z,12.20
2019-03-29T22:40:53.652Z,12.97
2019-03-29T22:43:59.215Z,12.87
2019-03-29T22:47:04.588Z,11.20
2019-03-29T22:50:10.136Z,12.93
2019-03-29T22:53:15.718Z,12.87
2019-03-29T22:56:21.482Z,11.50
2019-03-29T22:59:27.150Z,10.80
2019-03-29T23:02:32.682Z,12.33
2019-03-29T23:05:39.131Z,12.63
2019-03-29T23:08:44.908Z,12.07
2019-03-29T23:11:51.410Z,13.67
2019-03-29T23:14:57.930Z,13.70
2019-03-29T23:18:04.771Z,11.33
2019-03-29T23:21:14.284Z,13.40
2019-03-29T23:24:19.931Z,13.43
2019-03-29T23:27:25.704Z,15.93
2019-03-29T23:30:31.251Z,13.30
2019-03-29T23:33:39.203Z,12.03
2019-03-29T23:36:45.033Z,13.27
2019-03-29T23:39:52.189Z,13.73
2019-03-29T23:42:57.786Z,13.37
2019-03-29T23:46:04.022Z,13.30
2019-03-29T23:49:20.443Z,13.00
2019-03-29T23:52:20.184Z,13.13
2019-03-29T23:55:25.865Z,11.97
2019-03-29T23:58:31.645Z,12.53
